createdAt,value
2023-04-21T00:01:26.189Z,13.27
2023-04-21T00:03:55.500Z,16.97
2023-04-21T00:06:23.552Z,15.20
2023-04-21T00:08:51.614Z,15.87
2023-04-21T00:11:19.644Z,13.20
2023-04-21T00:13:47.377Z,13.53
2023-04-21T00:16:15.170Z,19.63
2023-04-21T00:18:44.267Z,13.90
2023-04-21T00:21:12.090Z,13.50
2023-04-21T00:23:39.791Z,15.10
2023-04-21T00:26:07.670Z,13.73
2023-04-21T00:28:35.417Z,13.83
2023-04-21T00:31:03.204Z,15.00
2023-04-21T00:33:31.031Z,17.20
2023-04-21T00:36:00.120Z,15.60
2023-04-21T00:38:27.918Z,13.83
2023-04-21T00:40:55.670Z,16.03
2023-04-21T00:43:23.387Z,12.47
2023-04-21T00:45:51.130Z,14.03
2023-04-21T00:48:18.883Z,14.60
2023-04-21T00:50:46.989Z,14.07
2023-04-21T00:53:16.936Z,15.00
2023-04-21T00:55:44.876Z,14.37
2023-04-21T00:58:12.681Z,13.37
2023-04-21T01:00:40.480Z,12.97
2023-04-21T01:03:08.773Z,12.20
2023-04-21T01:05:37.284Z,13.37
2023-04-21T01:08:07.316Z,16.47
2023-04-21T01:10:36.391Z,12.93
2023-04-21T01:13:04.199Z,14.43
2023-04-21T01:15:32.035Z,12.67
2023-04-21T01:17:59.891Z,12.67
2023-04-21T01:20:29.763Z,13.63
2023-04-21T01:22:58.872Z,12.90
2023-04-21T01:25:28.514Z,11.87
2023-04-21T01:27:56.303Z,13.00
2023-04-21T01:30:24.134Z,13.43
2023-04-21T01:32:51.962Z,10.13
2023-04-21T01:35:19.793Z,12.47
2023-04-21T01:37:47.535Z,12.07
2023-04-21T01:40:16.624Z,15.87
2023-04-21T01:42:44.873Z,16.30
2023-04-21T01:45:13.170Z,16.30
2023-04-21T01:47:40.989Z,12.23
2023-04-21T01:50:10.004Z,14.87
2023-04-21T01:52:37.781Z,14.90
2023-04-21T01:55:06.213Z,12.43
2023-04-21T01:57:36.171Z,13.07
2023-04-21T02:00:04.264Z,15.00
2023-04-21T02:02:32.033Z,10.33
2023-04-21T02:04:59.907Z,10.07
2023-04-21T02:07:27.675Z,13.77
2023-04-21T02:09:55.385Z,11.30
2023-04-21T02:12:23.187Z,13.23
2023-04-21T02:14:52.374Z,11.67
2023-04-21T02:17:20.091Z,15.30
2023-04-21T02:19:47.804Z,10.30
2023-04-21T02:22:15.573Z,11.80
2023-04-21T02:24:43.292Z,8.47
2023-04-21T02:27:11.067Z,11.03
2023-04-21T02:29:38.760Z,17.00
2023-04-21T02:32:22.178Z,9.73
2023-04-21T02:34:53.055Z,12.07
2023-04-21T02:37:20.941Z,13.83
2023-04-21T02:39:48.636Z,11.93
2023-04-21T02:42:16.366Z,22.10
2023-04-21T02:44:44.080Z,13.40
2023-04-21T02:47:13.167Z,10.27
2023-04-21T02:49:44.417Z,10.33
2023-04-21T02:52:12.168Z,13.10
2023-04-21T02:54:39.938Z,12.53
2023-04-21T02:57:07.694Z,11.97
2023-04-21T02:59:35.476Z,12.30
2023-04-21T03:02:04.260Z,13.43
2023-04-21T03:04:34.181Z,13.17
2023-04-21T03:07:02.079Z,11.93
2023-04-21T03:09:29.888Z,17.20
2023-04-21T03:11:57.573Z,13.13
2023-04-21T03:14:25.315Z,15.07
2023-04-21T03:16:53.291Z,9.93
2023-04-21T03:19:21.433Z,11.00
2023-04-21T03:21:50.830Z,7.87
2023-04-21T03:24:19.313Z,13.23
2023-04-21T03:26:47.142Z,10.67
2023-04-21T03:29:14.948Z,12.30
2023-04-21T03:31:42.844Z,9.87
2023-04-21T03:34:10.682Z,11.53
2023-04-21T03:36:38.371Z,9.30
2023-04-21T03:39:19.064Z,11.80
2023-04-21T03:41:47.380Z,10.43
2023-04-21T03:44:15.212Z,15.13
2023-04-21T03:46:42.958Z,10.67
2023-04-21T03:49:10.738Z,10.33
2023-04-21T03:51:38.538Z,9.93
2023-04-21T03:54:08.414Z,14.37
2023-04-21T03:56:36.189Z,12.73
2023-04-21T03:59:03.956Z,14.90
2023-04-21T04:01:31.639Z,10.13
2023-04-21T04:03:59.732Z,10.17
2023-04-21T04:06:28.397Z,9.73
2023-04-21T04:08:56.134Z,10.13
2023-04-21T04:11:25.247Z,9.57
2023-04-21T04:13:52.980Z,11.60
2023-04-21T04:16:23.112Z,12.10
2023-04-21T04:18:51.160Z,11.10
2023-04-21T04:21:18.958Z,14.47
2023-04-21T04:23:46.741Z,10.50
2023-04-21T04:26:14.548Z,10.47
2023-04-21T04:28:43.734Z,11.57
2023-04-21T04:31:13.626Z,13.27
2023-04-21T04:33:42.560Z,11.33
2023-04-21T04:36:12.048Z,12.07
2023-04-21T04:38:40.345Z,12.93
2023-04-21T04:41:08.975Z,12.53
2023-04-21T04:43:39.039Z,14.80
2023-04-21T04:46:09.228Z,16.47
2023-04-21T04:48:37.177Z,10.87
2023-04-21T04:51:05.147Z,14.17
2023-04-21T04:53:33.006Z,12.97
2023-04-21T04:56:00.731Z,13.10
2023-04-21T04:58:28.466Z,14.97
2023-04-21T05:00:56.299Z,15.63
2023-04-21T05:03:25.656Z,14.87
2023-04-21T05:05:54.217Z,16.43
2023-04-21T05:08:21.953Z,10.73
2023-04-21T05:10:49.658Z,11.83
2023-04-21T05:13:18.345Z,14.33
2023-04-21T05:15:46.079Z,13.17
2023-04-21T05:18:13.837Z,11.53
2023-04-21T05:20:44.488Z,11.07
2023-04-21T05:23:12.228Z,14.80
2023-04-21T05:25:40.263Z,11.57
2023-04-21T05:28:08.103Z,11.60
2023-04-21T05:30:36.513Z,8.90
2023-04-21T05:33:04.579Z,14.03
2023-04-21T05:35:32.391Z,7.77
2023-04-21T05:38:01.439Z,10.73
2023-04-21T05:40:29.237Z,10.10
2023-04-21T05:42:57.040Z,10.13
2023-04-21T05:45:24.788Z,11.83
2023-04-21T05:47:52.756Z,8.77
2023-04-21T05:50:20.637Z,8.73
2023-04-21T05:52:48.351Z,10.27
2023-04-21T05:55:17.448Z,8.13
2023-04-21T05:57:45.173Z,11.37
2023-04-21T06:00:14.173Z,9.50
2023-04-21T06:02:41.975Z,10.27
2023-04-21T06:05:10.597Z,9.43
2023-04-21T06:07:38.498Z,7.57
2023-04-21T06:10:07.341Z,8.90
2023-04-21T06:12:36.426Z,13.13
2023-04-21T06:15:04.865Z,15.23
2023-04-21T06:17:32.679Z,10.93
2023-04-21T06:20:00.449Z,10.07
2023-04-21T06:22:28.623Z,13.20
2023-04-21T06:24:56.949Z,14.93
2023-04-21T06:27:25.579Z,9.97
2023-04-21T06:29:56.896Z,10.43
2023-04-21T06:32:24.738Z,15.73
2023-04-21T06:34:52.496Z,13.30
2023-04-21T06:37:20.250Z,14.53
2023-04-21T06:39:48.110Z,8.97
2023-04-21T06:42:16.504Z,12.77
2023-04-21T06:44:44.286Z,9.90
2023-04-21T06:47:13.380Z,12.27
2023-04-21T06:49:41.148Z,12.20
2023-04-21T06:52:08.981Z,12.20
2023-04-21T06:54:37.503Z,11.83
2023-04-21T06:57:05.722Z,13.63
2023-04-21T06:59:34.342Z,8.27
2023-04-21T07:02:02.143Z,14.27
2023-04-21T07:04:32.310Z,8.20
2023-04-21T07:07:03.014Z,11.00
2023-04-21T07:09:33.790Z,13.47
2023-04-21T07:12:02.739Z,11.73
2023-04-21T07:14:30.830Z,12.13
2023-04-21T07:16:58.623Z,10.80
2023-04-21T07:19:26.487Z,9.80
2023-04-21T07:21:55.617Z,11.13
2023-04-21T07:24:23.384Z,8.60
2023-04-21T07:26:51.492Z,12.27
2023-04-21T07:29:19.352Z,9.23
2023-04-21T07:31:48.288Z,10.83
2023-04-21T07:34:16.267Z,13.33
2023-04-21T07:36:44.057Z,9.13
2023-04-21T07:39:13.264Z,13.90
2023-04-21T07:41:41.126Z,11.23
2023-04-21T07:44:09.015Z,11.07
2023-04-21T07:46:36.826Z,13.53
2023-04-21T07:49:04.553Z,10.83
2023-04-21T07:51:32.769Z,10.53
2023-04-21T07:54:00.742Z,12.87
2023-04-21T07:56:30.007Z,10.63
2023-04-21T07:58:57.738Z,10.27
2023-04-21T08:01:25.590Z,9.63
2023-04-21T08:03:53.414Z,11.57
2023-04-21T08:06:21.559Z,10.07
2023-04-21T08:08:50.436Z,13.03
2023-04-21T08:11:18.359Z,16.37
2023-04-21T08:13:47.541Z,10.70
2023-04-21T08:16:15.425Z,9.33
2023-04-21T08:18:43.251Z,11.90
2023-04-21T08:21:10.941Z,11.77
2023-04-21T08:23:38.647Z,14.67
2023-04-21T08:26:06.636Z,13.83
2023-04-21T08:28:34.409Z,12.00
2023-04-21T08:31:04.849Z,9.10
2023-04-21T08:33:33.724Z,11.50
2023-04-21T08:36:09.899Z,10.57
2023-04-21T08:38:45.064Z,10.90
2023-04-21T08:41:13.833Z,11.50
2023-04-21T08:43:41.623Z,16.90
2023-04-21T08:46:10.897Z,9.27
2023-04-21T08:48:40.067Z,11.37
2023-04-21T08:51:10.502Z,11.93
2023-04-21T08:53:38.741Z,13.03
2023-04-21T08:56:11.194Z,10.43
2023-04-21T08:58:39.623Z,8.57
2023-04-21T09:01:07.528Z,8.90
2023-04-21T09:03:37.839Z,12.10
2023-04-21T09:06:08.207Z,11.67
2023-04-21T09:08:40.501Z,13.33
2023-04-21T09:11:08.236Z,10.37
2023-04-21T09:13:37.528Z,10.50
2023-04-21T09:16:08.604Z,13.10
2023-04-21T09:18:40.302Z,13.33
2023-04-21T09:21:10.618Z,8.23
2023-04-21T09:23:46.071Z,11.90
2023-04-21T09:26:14.200Z,7.53
2023-04-21T09:28:43.307Z,9.57
2023-04-21T09:31:19.792Z,6.73
2023-04-21T09:36:23.182Z,9.60
2023-04-21T09:39:15.421Z,5.47
2023-04-21T09:41:44.938Z,9.00
2023-04-21T09:44:12.940Z,9.67
2023-04-21T09:46:44.743Z,12.13
2023-04-21T09:49:15.086Z,6.57
2023-04-21T09:52:10.498Z,7.60
2023-04-21T09:54:33.781Z,7.60
2023-04-21T09:57:03.573Z,7.17
2023-04-21T09:59:34.045Z,10.90
2023-04-21T10:02:02.415Z,6.53
2023-04-21T10:04:33.379Z,11.23
2023-04-21T10:07:01.890Z,8.57
2023-04-21T10:09:36.434Z,8.33
2023-04-21T10:12:06.931Z,14.97
2023-04-21T10:14:36.378Z,7.57
2023-04-21T10:17:06.739Z,14.60
2023-04-21T10:19:39.954Z,9.00
2023-04-21T10:22:09.596Z,8.03
2023-04-21T10:24:40.053Z,10.83
2023-04-21T10:27:11.161Z,5.30
2023-04-21T10:29:52.614Z,11.77
2023-04-21T10:32:34.606Z,10.13
2023-04-21T10:35:03.718Z,11.20
2023-04-21T10:37:32.503Z,8.37
2023-04-21T10:40:00.337Z,6.90
2023-04-21T10:42:31.406Z,7.87
2023-04-21T10:45:12.558Z,8.37
2023-04-21T10:47:51.976Z,8.17
2023-04-21T10:50:23.527Z,6.03
2023-04-21T10:52:59.246Z,4.57
2023-04-21T10:55:28.950Z,6.27
2023-04-21T10:57:57.189Z,5.73
2023-04-21T11:00:27.839Z,5.07
2023-04-21T11:03:00.739Z,6.17
2023-04-21T11:05:32.533Z,6.27
2023-04-21T11:08:07.799Z,4.87
2023-04-21T11:10:54.362Z,6.83
2023-04-21T11:13:24.540Z,9.20
2023-04-21T11:16:02.814Z,7.40
2023-04-21T11:18:42.555Z,4.83
2023-04-21T11:21:18.689Z,4.77
2023-04-21T11:23:54.521Z,5.30
2023-04-21T11:26:32.830Z,6.70
2023-04-21T11:29:05.254Z,5.13
2023-04-21T11:31:33.521Z,5.40
2023-04-21T11:34:01.855Z,6.33
2023-04-21T11:36:31.044Z,4.83
2023-04-21T11:38:59.371Z,4.13
2023-04-21T11:41:27.232Z,9.07
2023-04-21T11:43:54.900Z,5.70
2023-04-21T11:46:26.037Z,7.17
2023-04-21T11:49:01.071Z,7.90
2023-04-21T11:51:35.375Z,6.60
2023-04-21T11:54:04.313Z,6.23
2023-04-21T11:56:36.416Z,6.57
2023-04-21T11:59:08.212Z,6.03
2023-04-21T12:01:36.475Z,5.53
2023-04-21T12:04:05.815Z,9.20
2023-04-21T12:06:38.753Z,9.10
2023-04-21T12:09:06.608Z,6.03
2023-04-21T12:11:35.968Z,9.70
2023-04-21T12:14:03.772Z,6.50
2023-04-21T12:16:31.580Z,9.77
2023-04-21T12:18:59.383Z,7.80
2023-04-21T12:21:31.599Z,8.03
2023-04-21T12:24:00.681Z,6.33
2023-04-21T12:26:28.373Z,9.50
2023-04-21T12:28:56.176Z,6.80
2023-04-21T12:31:23.884Z,7.73
2023-04-21T12:33:51.714Z,7.37
2023-04-21T12:36:19.426Z,8.47
2023-04-21T12:38:47.530Z,7.50
2023-04-21T12:41:16.649Z,7.00
2023-04-21T12:43:44.581Z,8.93
2023-04-21T12:46:12.353Z,9.40
2023-04-21T12:48:40.195Z,8.70
2023-04-21T12:51:08.214Z,9.10
2023-04-21T12:53:36.804Z,9.63
2023-04-21T12:56:05.774Z,6.67
2023-04-21T12:58:35.260Z,4.43
2023-04-21T13:01:04.270Z,6.27
2023-04-21T13:03:42.361Z,3.93
2023-04-21T13:06:12.665Z,9.43
2023-04-21T13:08:40.412Z,9.67
2023-04-21T13:11:08.157Z,4.20
2023-04-21T13:13:37.306Z,5.50
2023-04-21T13:16:05.770Z,5.47
2023-04-21T13:18:34.837Z,5.97
2023-04-21T13:21:02.772Z,4.37
2023-04-21T13:23:30.704Z,6.97
2023-04-21T13:25:58.442Z,5.90
2023-04-21T13:28:26.774Z,4.57
2023-04-21T13:30:55.872Z,5.93
2023-04-21T13:33:24.672Z,6.17
2023-04-21T13:35:52.463Z,6.27
2023-04-21T13:38:20.935Z,8.80
2023-04-21T13:40:49.131Z,7.30
2023-04-21T13:43:17.020Z,7.37
2023-04-21T13:45:46.029Z,7.27
2023-04-21T13:48:15.163Z,6.57
2023-04-21T13:50:42.855Z,6.37
2023-04-21T13:53:10.885Z,6.53
2023-04-21T13:55:38.607Z,6.27
2023-04-21T13:58:06.755Z,4.80
2023-04-21T14:00:34.491Z,5.47
2023-04-21T14:03:02.385Z,2.93
2023-04-21T14:05:31.938Z,4.00
2023-04-21T14:07:59.959Z,4.03
2023-04-21T14:10:28.034Z,6.27
2023-04-21T14:12:55.733Z,5.10
2023-04-21T14:15:23.515Z,6.33
2023-04-21T14:17:51.323Z,6.67
2023-04-21T14:20:19.238Z,4.70
2023-04-21T14:22:48.280Z,4.30
2023-04-21T14:25:16.190Z,5.80
2023-04-21T14:27:44.083Z,5.20
2023-04-21T14:30:13.146Z,6.43
2023-04-21T14:32:45.186Z,5.00
2023-04-21T14:35:13.395Z,7.33
2023-04-21T14:37:42.084Z,6.43
2023-04-21T14:40:11.931Z,5.77
2023-04-21T14:42:41.423Z,4.33
2023-04-21T14:45:10.423Z,3.70
2023-04-21T14:47:38.316Z,6.07
2023-04-21T14:50:07.502Z,7.93
2023-04-21T14:52:36.093Z,5.67
2023-04-21T14:55:04.409Z,4.00
2023-04-21T14:57:33.649Z,4.87
2023-04-21T15:00:02.179Z,4.30
2023-04-21T15:02:30.915Z,5.47
2023-04-21T15:04:59.076Z,6.10
2023-04-21T15:07:26.897Z,9.13
2023-04-21T15:09:55.390Z,5.03
2023-04-21T15:12:23.242Z,4.50
2023-04-21T15:14:52.581Z,6.40
2023-04-21T15:17:20.370Z,4.40
2023-04-21T15:19:48.111Z,8.07
2023-04-21T15:22:16.130Z,7.63
2023-04-21T15:24:44.022Z,4.30
2023-04-21T15:27:11.710Z,8.23
2023-04-21T15:29:39.522Z,5.43
2023-04-21T15:32:08.737Z,2.97
2023-04-21T15:34:36.574Z,3.50
2023-04-21T15:37:04.528Z,6.53
2023-04-21T15:39:32.324Z,3.20
2023-04-21T15:42:00.188Z,8.07
2023-04-21T15:44:28.230Z,4.77
2023-04-21T15:46:56.159Z,5.13
2023-04-21T15:49:33.029Z,7.60
2023-04-21T15:52:00.862Z,5.17
2023-04-21T15:54:28.638Z,3.97
2023-04-21T15:56:57.589Z,4.47
2023-04-21T15:59:26.282Z,4.43
2023-04-21T16:01:54.486Z,3.77
2023-04-21T16:04:22.552Z,5.37
2023-04-21T16:06:52.128Z,5.07
2023-04-21T16:09:21.089Z,5.50
2023-04-21T16:11:50.103Z,5.90
2023-04-21T16:14:18.021Z,5.67
2023-04-21T16:16:46.236Z,7.93
2023-04-21T16:19:14.233Z,10.03
2023-04-21T16:21:42.860Z,7.77
2023-04-21T16:24:12.150Z,4.87
2023-04-21T16:26:40.497Z,4.50
2023-04-21T16:29:08.641Z,5.50
2023-04-21T16:31:36.452Z,3.97
2023-04-21T16:34:04.277Z,4.67
2023-04-21T16:36:32.489Z,8.47
2023-04-21T16:39:00.732Z,5.93
2023-04-21T16:41:30.401Z,5.13
2023-04-21T16:43:58.358Z,4.00
2023-04-21T16:46:28.179Z,4.33
2023-04-21T16:48:55.974Z,5.23
2023-04-21T16:51:23.739Z,3.87
2023-04-21T16:53:52.073Z,4.70
2023-04-21T16:56:21.643Z,4.47
2023-04-21T16:58:50.871Z,4.53
2023-04-21T17:01:18.674Z,5.43
2023-04-21T17:03:46.598Z,6.17
2023-04-21T17:06:17.283Z,6.00
2023-04-21T17:08:45.087Z,5.90
2023-04-21T17:11:12.847Z,7.03
2023-04-21T17:13:40.585Z,8.63
2023-04-21T17:16:09.772Z,4.70
2023-04-21T17:18:37.520Z,5.00
2023-04-21T17:21:06.139Z,7.17
2023-04-21T17:23:33.948Z,6.10
2023-04-21T17:26:02.051Z,5.33
2023-04-21T17:28:29.795Z,5.37
2023-04-21T17:31:11.336Z,5.60
2023-04-21T17:33:43.483Z,6.57
2023-04-21T17:36:11.479Z,5.87
2023-04-21T17:38:39.771Z,7.03
2023-04-21T17:41:07.824Z,6.80
2023-04-21T17:43:35.560Z,7.07
2023-04-21T17:46:03.375Z,7.90
2023-04-21T17:48:31.131Z,11.23
2023-04-21T17:51:00.208Z,6.27
2023-04-21T17:53:28.018Z,5.53
2023-04-21T17:55:56.495Z,5.90
2023-04-21T17:58:24.276Z,4.50
2023-04-21T18:00:52.057Z,8.23
2023-04-21T18:03:19.996Z,5.60
2023-04-21T18:05:47.898Z,5.13
2023-04-21T18:08:17.066Z,7.03
2023-04-21T18:10:44.811Z,6.17
2023-04-21T18:13:12.523Z,7.47
2023-04-21T18:15:41.627Z,5.10
2023-04-21T18:18:09.575Z,8.30
2023-04-21T18:20:37.967Z,6.47
2023-04-21T18:23:06.068Z,8.07
2023-04-21T18:28:08.339Z,6.90
2023-04-21T18:30:36.046Z,7.53
2023-04-21T18:33:03.783Z,5.90
2023-04-21T18:35:33.180Z,6.20
2023-04-21T18:38:01.156Z,5.20
2023-04-21T18:40:28.976Z,6.97
2023-04-21T18:42:58.120Z,6.07
2023-04-21T18:45:25.875Z,6.23
2023-04-21T18:47:53.601Z,7.50
2023-04-21T18:50:21.356Z,6.10
2023-04-21T18:52:49.160Z,11.60
2023-04-21T18:55:17.002Z,5.73
2023-04-21T18:57:44.721Z,6.23
2023-04-21T19:00:15.633Z,6.63
2023-04-21T19:02:44.669Z,7.37
2023-04-21T19:05:12.582Z,8.33
2023-04-21T19:07:41.840Z,8.00
2023-04-21T19:10:10.360Z,5.00
2023-04-21T19:12:38.198Z,9.60
2023-04-21T19:15:07.598Z,7.27
2023-04-21T19:17:37.647Z,10.17
2023-04-21T19:20:07.613Z,5.53
2023-04-21T19:22:36.126Z,8.73
2023-04-21T19:25:04.019Z,6.83
2023-04-21T19:27:32.640Z,8.10
2023-04-21T19:30:00.354Z,7.27
2023-04-21T19:32:28.539Z,6.23
2023-04-21T19:34:57.769Z,7.70
2023-04-21T19:37:26.681Z,6.27
2023-04-21T19:39:54.536Z,9.53
2023-04-21T19:42:22.276Z,8.13
2023-04-21T19:44:50.054Z,8.13
2023-04-21T19:47:18.117Z,8.10
2023-04-21T19:49:46.548Z,9.57
2023-04-21T19:52:15.686Z,6.43
2023-04-21T19:54:43.512Z,6.73
2023-04-21T19:57:11.302Z,7.37
2023-04-21T19:59:39.367Z,8.47
2023-04-21T20:02:07.873Z,7.27
2023-04-21T20:04:37.442Z,9.03
2023-04-21T20:07:05.744Z,6.87
2023-04-21T20:09:35.429Z,6.57
2023-04-21T20:12:03.267Z,8.43
2023-04-21T20:14:31.278Z,7.27
2023-04-21T20:16:59.027Z,5.97
2023-04-21T20:19:27.064Z,7.33
2023-04-21T20:21:54.834Z,8.20
2023-04-21T20:24:22.921Z,12.53
2023-04-21T20:26:52.077Z,7.20
2023-04-21T20:29:19.807Z,6.07
2023-04-21T20:31:47.746Z,6.67
2023-04-21T20:34:15.742Z,8.80
2023-04-21T20:36:43.539Z,14.57
2023-04-21T20:39:14.217Z,8.70
2023-04-21T20:41:43.543Z,7.50
2023-04-21T20:44:14.127Z,7.30
2023-04-21T20:46:42.090Z,8.37
2023-04-21T20:49:09.881Z,6.87
2023-04-21T20:51:41.809Z,7.07
2023-04-21T20:54:09.772Z,6.43
2023-04-21T20:56:37.669Z,7.53
2023-04-21T20:59:05.353Z,8.17
2023-04-21T21:01:38.803Z,6.53
2023-04-21T21:04:06.669Z,9.07
2023-04-21T21:06:34.990Z,8.53
2023-04-21T21:09:02.672Z,6.10
2023-04-21T21:11:30.617Z,8.40
2023-04-21T21:13:58.467Z,7.60
2023-04-21T21:16:26.218Z,6.00
2023-04-21T21:18:55.305Z,6.53
2023-04-21T21:21:23.066Z,12.93
2023-04-21T21:23:51.107Z,7.80
2023-04-21T21:26:19.013Z,10.53
2023-04-21T21:28:46.815Z,7.67
2023-04-21T21:31:14.584Z,10.70
2023-04-21T21:33:42.302Z,11.80
2023-04-21T21:36:11.472Z,8.17
2023-04-21T21:38:39.284Z,10.90
2023-04-21T21:41:07.453Z,11.53
2023-04-21T21:43:35.262Z,8.67
2023-04-21T21:46:03.018Z,7.57
2023-04-21T21:48:30.792Z,8.40
2023-04-21T21:50:58.499Z,9.23
2023-04-21T21:53:27.612Z,8.43
2023-04-21T21:55:55.328Z,9.00
2023-04-21T21:58:23.104Z,6.47
2023-04-21T22:00:52.005Z,9.20
2023-04-21T22:03:19.852Z,7.53
2023-04-21T22:05:47.947Z,10.53
2023-04-21T22:08:15.850Z,7.80
2023-04-21T22:10:45.205Z,8.87
2023-04-21T22:13:13.009Z,7.97
2023-04-21T22:15:41.271Z,10.40
2023-04-21T22:18:09.716Z,7.83
2023-04-21T22:20:37.739Z,9.97
2023-04-21T22:23:05.531Z,8.20
2023-04-21T22:25:33.354Z,9.17
2023-04-21T22:28:02.458Z,9.13
2023-04-21T22:30:31.712Z,8.67
2023-04-21T22:32:59.500Z,7.53
2023-04-21T22:35:27.253Z,7.97
2023-04-21T22:37:54.957Z,6.97
2023-04-21T22:40:22.688Z,12.57
2023-04-21T22:42:50.485Z,10.63
2023-04-21T22:45:19.675Z,10.63
2023-04-21T22:47:49.073Z,9.27
2023-04-21T22:50:16.835Z,8.30
2023-04-21T22:52:44.580Z,8.83
2023-04-21T22:55:12.258Z,8.43
2023-04-21T22:57:39.972Z,9.77
2023-04-21T23:00:09.865Z,9.93
2023-04-21T23:02:39.059Z,9.30
2023-04-21T23:05:07.683Z,10.10
2023-04-21T23:07:36.583Z,12.00
2023-04-21T23:10:04.754Z,8.77
2023-04-21T23:12:32.513Z,8.60
2023-04-21T23:15:00.274Z,9.93
2023-04-21T23:17:28.175Z,11.93
2023-04-21T23:19:57.309Z,7.97
2023-04-21T23:22:26.242Z,9.60
2023-04-21T23:24:54.090Z,9.47
2023-04-21T23:27:21.859Z,9.47
2023-04-21T23:29:49.589Z,9.27
2023-04-21T23:32:17.387Z,9.70
2023-04-21T23:34:45.814Z,11.30
2023-04-21T23:37:14.989Z,7.83
2023-04-21T23:39:42.733Z,11.07
2023-04-21T23:42:10.544Z,10.57
2023-04-21T23:44:40.164Z,10.90
2023-04-21T23:47:09.164Z,10.07
2023-04-21T23:49:37.078Z,9.70
2023-04-21T23:52:05.050Z,10.30
2023-04-21T23:54:34.217Z,10.43
2023-04-21T23:57:02.431Z,8.80
2023-04-21T23:59:30.166Z,9.47
